Airfield :







YOU CAN JOIN US ON...

 
LOGIN :

Register | Disclaimer

   EN    FR    IT 

 









Legend :    VFR   Marginal VFR   IFR   Intensive IFR   Very Intensive IFR
Visi :
Ceiling :
>= 8 km
>= 3000ft
5 to 8 km
1000 to 3000 ft
1500m to 5 km
500 to 1000 ft
800 to 1500m
200 to 500 ft
< 800m
< 200 ft
Symbols :   Thunderstorms  Fog  Heavy snow  Heavy precipitations  Wind > 20 kt






- Airport Elevation : 1005 ft
- IATA code : YAH


CYAH - La Grande-4

CURRENT METAR :
  • 191735Z AUTO 28013G23KT 1 1/2SM HZ OVC024 M25/M30 A2985 RMK SLP147

EXPIRED METARs :
  • 191731Z AUTO 28016G22KT 2SM HZ OVC024 M25/M30 A2985 RMK VIS VRB 1 1/4-2 1/2 SLP146
  • 191703Z AUTO 28016G22KT 2 1/2SM HZ BKN030 BKN037 OVC045 M26/M31 A2984 RMK SLP144
  • 191654Z AUTO 29014G22KT 3SM HZ FEW023 BKN029 OVC035 M26/M31 A2984 RMK SLP142
  • 191618Z AUTO 28016G23KT 2SM HZ BKN025 OVC035 M26/M31 A2982 RMK VIS VRB 1 1/4-3 SLP137
  • 191605Z AUTO 28017G22KT 1 1/2SM HZ FEW018 BKN025 M26/M31 A2982 RMK SLP135
  • 191548Z AUTO 29012G21KT 3SM HZ FEW018 OVC023 M26/M31 A2981 RMK SLP133
  • 191518Z AUTO 27015G22KT 3SM HZ BKN025 OVC037 M26/M31 A2979 RMK SLP126
  • 191510Z AUTO 27015G21KT 2SM HZ BKN025 OVC037 M26/M31 A2979 RMK VIS VRB 1 1/2-3 SLP125
  • 191457Z AUTO 27016G23KT 1 3/4SM HZ FEW020 BKN027 OVC035 M26/M30 A2979 RMK PRESRR SLP124

TAF AMD TAF CYAH
Valid from the 19 at 14:00 until the 19 at 22:00 UTC


191417Z 1914/1922 28015G25KT P6SM BKN030
TEMPO 1914/1921 2SM BLSN
FM192100 27015G25KT P6SM SCT030
TEMPO 1921/1922 5SM IC BKN030 RMK FCST BASED ON AUTO OBS. NXT FCST BY 191800Z



MET'MAP, your aeronautical weather chart ! - Copyright ORBIFLY December 2007 - Disclaimer

ORBIFLY MET'MAP TEAM :

Programming & Development : Alexandra Zaïnal
Concept & original design : Baudouin d'Aumeries
Assistance for programming : Marc-Olivier Méhu
Technical & hardware support : Manuel Goepfert

Contact : metmap@orbifly.com




SOURCES & CREDITS :

   NOAA